Alcalde, New Mexico
Current Conditions -  °F | °C
As of 3:35 PM on Friday 24 Oct 2014 (Local Time) from KLAM Reporting Station
Clear Clear  
Wind Chill: 21°   Ceiling: Unl
Heat Index: 21°   Visibility: 7mi
Dew Point: -2°   Wind: 0mph
Humidity: 22%   Direction: NA
Pressure: 30.35"   Gusts: NA
Location:  36.09°N, 106.06°W
Report Text: KLAM 242135Z AUTO 00000KT 7SM CLR 21/M02 A3035 RMK AO2 T02111017
Loading
Personal Weather Stations






























Interactive Weather Map
Tropical Storm Tracking
New forecast layout! Learn more

10-Day Weather Forecast

Advertisements
Track Severe Weather on mobile